Terminal Aerodrome Forecast
Issued by NWS

Home | Current Version | Previous Version | Text Only | Print | Product List | Glossary On
Versions: 1 2 3 4 5 6 7 8 9 10 11 12 13 14 15 16 17 18 19 20 21 22 23 24 25 26 27 28
000
FTUS46 KOTX 200539
TAFPUW
TAF
KPUW 200539Z 2006/2106 09011KT P6SM VCSH BKN080
     FM201300 11015G18KT P6SM FEW080 SCT100
     FM210000 10010KT P6SM BKN130
     FM210500 11008KT P6SM VCSH BKN090=

USA.gov is the U.S. government's official web portal to all federal, state and local government web resources and services.